createdAt,value
2018-01-02T17:31:56.723Z,22.68
2018-01-02T17:32:56.713Z,22.62
2018-01-02T17:33:56.732Z,22.64
2018-01-02T17:34:57.097Z,22.64
2018-01-02T17:35:57.014Z,22.61
2018-01-02T17:36:57.064Z,22.65
2018-01-02T17:37:57.071Z,22.71
2018-01-02T17:38:57.167Z,22.68
2018-01-02T18:14:30.223Z,22.48
2018-01-02T18:15:30.196Z,22.59
2018-01-02T18:16:30.275Z,22.57
2018-01-02T19:13:31.462Z,23.03
2018-01-02T19:13:46.116Z,23.09
2018-01-02T19:14:01.142Z,23.13
2018-01-02T19:14:16.160Z,23.13
2018-01-02T19:14:31.156Z,23.21
2018-01-02T19:14:46.128Z,23.07
2018-01-02T19:15:01.291Z,23.04
2018-01-02T19:19:07.622Z,23.07
2018-01-02T19:19:22.118Z,23.09
2018-01-02T19:19:39.391Z,23.08
2018-01-02T19:19:52.123Z,23.13
2018-01-02T19:20:07.141Z,23.12
2018-01-02T19:20:22.120Z,23.07
2018-01-02T19:20:37.133Z,23.05
2018-01-02T19:20:52.123Z,23.07
2018-01-02T19:21:07.151Z,23.1
2018-01-02T19:21:36.724Z,23.05
2018-01-02T19:21:51.689Z,23
2018-01-02T19:22:06.688Z,23.05
2018-01-02T19:22:21.687Z,23.09
2018-01-02T19:22:36.709Z,23.07
2018-01-02T19:23:08.843Z,23
2018-01-02T19:23:23.629Z,23
2018-01-02T19:23:38.632Z,23
2018-01-02T19:24:05.854Z,23.12
2018-01-02T19:24:20.748Z,23.16
2018-01-02T19:24:35.817Z,23.16
2018-01-02T19:24:50.745Z,23.15
2018-01-02T19:25:22.103Z,23.3
2018-01-02T19:25:37.094Z,23.35
2018-01-02T19:25:52.096Z,23.39
2018-01-02T19:26:07.120Z,23.31
2018-01-02T19:26:22.120Z,23.21
2018-01-02T19:27:34.118Z,23.2
2018-01-02T19:28:33.940Z,23.2
2018-01-02T19:29:33.974Z,23.19
2018-01-02T19:32:38.662Z,23.11
2018-01-02T19:33:38.622Z,23.14
2018-01-02T19:34:38.692Z,23.14
2018-01-02T19:35:38.620Z,23.11
2018-01-02T19:37:06.498Z,23.23
2018-01-02T19:37:21.260Z,23.28
2018-01-02T19:37:36.632Z,23.32
2018-01-02T19:38:06.046Z,23.31
2018-01-02T19:38:20.783Z,23.29
2018-01-02T19:38:35.909Z,23.27
2018-01-02T19:39:09.484Z,23.21
2018-01-02T19:39:24.370Z,23.26
2018-01-02T19:39:39.417Z,23.26
2018-01-02T19:39:54.357Z,23.23
2018-01-02T19:42:16.264Z,23.23
2018-01-02T19:42:31.768Z,23.22
2018-01-02T19:42:47.579Z,23.21
2018-01-02T19:42:59.513Z,23.2
2018-01-02T19:43:14.507Z,23.2
2018-01-02T19:43:35.604Z,23.21
2018-01-02T19:43:44.685Z,23.21
2018-01-02T19:43:59.436Z,23.17
2018-01-02T19:44:14.455Z,23.13
2018-01-02T19:44:29.640Z,23.12
2018-01-02T19:44:44.513Z,23.15
2018-01-02T19:44:59.938Z,23.18
2018-01-02T19:45:14.465Z,23.16
2018-01-02T19:45:43.916Z,23.13
2018-01-02T19:45:58.340Z,23.12
2018-01-02T19:46:13.366Z,23.19
2018-01-02T19:47:32.766Z,23.09
2018-01-02T19:48:34.686Z,23.03
2018-01-02T19:49:32.715Z,22.99
2018-01-02T19:50:32.708Z,23.1
2018-01-02T19:51:32.979Z,23.1
2018-01-02T19:52:32.666Z,23.02
2018-01-02T19:53:32.666Z,23.04
2018-01-02T19:54:32.868Z,23.26
2018-01-02T19:55:32.687Z,23.26
2018-01-02T19:56:32.697Z,23.1
2018-01-02T19:57:32.808Z,23.31
2018-01-02T20:00:54.089Z,23.33
2018-01-02T20:01:04.145Z,23.3
2018-01-02T20:01:14.443Z,23.31
2018-01-02T20:01:24.048Z,23.32
2018-01-02T20:01:34.099Z,23.27
2018-01-02T20:01:44.058Z,23.22
2018-01-02T20:01:54.050Z,23.19
2018-01-02T20:02:04.358Z,23.13
2018-01-02T20:02:14.108Z,23.13
2018-01-02T20:02:24.049Z,23.1
2018-01-02T20:02:34.068Z,23.12
2018-01-02T20:02:44.059Z,23.1
2018-01-02T20:04:50.309Z,22.98
2018-01-02T20:05:00.290Z,22.99
2018-01-02T20:05:10.278Z,22.97
2018-01-02T20:06:18.169Z,22.95
2018-01-02T20:06:28.131Z,22.94
2018-01-02T20:06:38.153Z,22.91
2018-01-02T20:06:48.141Z,22.89
2018-01-02T20:06:58.128Z,22.95
2018-01-02T20:07:08.320Z,22.96
2018-01-02T20:07:18.128Z,22.97
2018-01-02T20:07:28.184Z,22.99
2018-01-02T20:07:38.170Z,22.96
2018-01-02T20:07:48.130Z,22.94
2018-01-02T20:07:58.133Z,22.93
2018-01-02T20:08:08.153Z,22.92
2018-01-02T20:08:18.134Z,22.92
2018-01-02T20:08:28.132Z,22.96
2018-01-02T20:08:38.149Z,22.99
2018-01-02T20:08:48.126Z,22.99
2018-01-02T20:08:58.130Z,23
2018-01-02T20:09:09.000Z,22.98
2018-01-02T20:09:26.609Z,22.96
2018-01-02T20:09:36.590Z,22.93
2018-01-02T20:09:46.700Z,22.98
2018-01-02T20:09:56.560Z,22.95
2018-01-02T20:10:06.566Z,22.99
2018-01-02T20:10:16.562Z,23.04
2018-01-02T20:10:26.561Z,23.04
2018-01-02T20:10:36.568Z,23.03
2018-01-02T20:10:46.566Z,22.99
2018-01-02T20:10:56.563Z,23.01
2018-01-02T20:11:06.620Z,23.03
2018-01-02T20:12:11.821Z,22.96
2018-01-02T20:13:11.821Z,22.96
2018-01-02T20:14:11.810Z,22.88
2018-01-02T20:15:11.877Z,22.81
2018-01-02T20:16:11.791Z,22.73
2018-01-02T20:17:11.861Z,22.7
2018-01-02T20:18:11.791Z,22.63
2018-01-02T20:19:11.781Z,22.48
2018-01-02T20:20:11.875Z,22.44
2018-01-02T20:21:11.803Z,22.39
2018-01-02T20:22:11.813Z,22.34
2018-01-02T20:23:11.798Z,22.29
2018-01-02T20:24:11.799Z,22.18
2018-01-02T20:25:11.792Z,22.11
2018-01-02T20:26:11.795Z,22.08
2018-01-02T20:27:11.836Z,21.99
2018-01-02T20:28:11.967Z,21.98
2018-01-02T20:29:11.813Z,21.93
2018-01-02T20:30:11.793Z,21.93
2018-01-02T20:31:11.833Z,21.83
2018-01-02T20:32:11.843Z,21.8
2018-01-02T20:33:11.833Z,21.76
2018-01-02T20:34:11.834Z,21.73
2018-01-02T20:35:11.822Z,21.73
2018-01-02T20:36:11.811Z,21.68
2018-01-02T20:37:11.956Z,21.67
2018-01-02T20:38:11.825Z,21.63
2018-01-02T20:39:11.869Z,21.57
2018-01-02T20:40:11.840Z,21.6
2018-01-02T20:41:12.211Z,21.59
2018-01-02T20:42:11.898Z,21.56
2018-01-02T20:43:11.852Z,21.52
2018-01-02T20:44:11.843Z,21.45
2018-01-02T20:45:11.823Z,21.42
2018-01-02T20:46:11.844Z,21.37
2018-01-02T20:47:12.315Z,21.37
2018-01-02T20:48:11.840Z,21.38
2018-01-02T20:49:11.848Z,21.39
2018-01-02T20:50:11.857Z,21.44
2018-01-02T20:51:11.818Z,21.55
2018-01-02T20:53:14.838Z,21.51
2018-01-02T20:54:14.792Z,21.38
2018-01-02T20:55:14.756Z,21.24
2018-01-02T20:56:14.843Z,21.09
2018-01-02T20:57:14.747Z,20.98
2018-01-02T20:58:15.096Z,20.84
2018-01-02T20:59:14.818Z,20.75
2018-01-02T21:00:14.755Z,20.65
2018-01-02T21:01:14.757Z,20.61
2018-01-02T21:02:14.748Z,20.53
2018-01-02T21:03:17.329Z,20.5
2018-01-02T21:04:14.969Z,20.44
2018-01-02T21:05:14.781Z,20.4
2018-01-02T21:06:14.789Z,20.36
2018-01-02T21:07:15.308Z,20.31
2018-01-02T21:08:14.789Z,20.27
2018-01-02T21:09:14.862Z,20.24
2018-01-02T21:10:14.839Z,20.21
2018-01-02T21:11:14.771Z,20.17
2018-01-02T21:12:15.011Z,20.15
2018-01-02T21:13:16.030Z,20.12
2018-01-02T21:14:14.760Z,20.1
2018-01-02T21:15:14.881Z,20.08
2018-01-02T21:16:14.770Z,20.07
2018-01-02T21:17:14.826Z,20.06
2018-01-02T21:18:14.791Z,20.03
2018-01-02T21:19:14.842Z,20.03
2018-01-02T21:20:14.821Z,20
2018-01-02T21:21:14.811Z,19.99
2018-01-02T21:22:17.827Z,19.97
2018-01-02T21:23:17.949Z,19.96
2018-01-02T21:24:14.844Z,19.94
2018-01-02T21:25:15.582Z,19.92
2018-01-02T21:26:14.918Z,19.9
2018-01-02T21:27:14.879Z,19.89
2018-01-02T21:28:16.462Z,19.88
2018-01-02T21:29:14.958Z,19.87
2018-01-02T21:30:15.963Z,19.85
2018-01-02T21:31:15.283Z,19.86
2018-01-02T21:32:14.793Z,19.86
2018-01-02T21:33:14.823Z,19.85
2018-01-02T21:34:14.797Z,19.88
2018-01-02T21:35:14.852Z,19.91
2018-01-02T21:36:14.814Z,19.97
2018-01-02T21:37:16.914Z,19.98
2018-01-02T21:38:15.557Z,19.99
2018-01-02T21:39:15.503Z,20
2018-01-02T21:40:14.979Z,19.99
2018-01-02T21:41:14.875Z,20
2018-01-02T21:42:14.794Z,20
2018-01-02T21:43:14.859Z,19.99
2018-01-02T21:44:14.887Z,19.99
2018-01-02T21:45:15.042Z,19.98
2018-01-02T21:46:14.803Z,19.97
2018-01-02T21:47:14.822Z,19.98
2018-01-02T21:48:14.912Z,19.95
2018-01-02T21:49:14.846Z,19.97
2018-01-02T21:50:14.864Z,19.95
2018-01-02T21:51:14.793Z,19.94
2018-01-02T21:52:15.243Z,19.94
2018-01-02T21:53:15.412Z,19.94
2018-01-02T21:54:14.804Z,19.91
2018-01-02T21:55:14.806Z,19.92
2018-01-02T21:56:15.975Z,19.92
2018-01-02T21:57:14.832Z,19.92
2018-01-02T21:58:15.500Z,19.91
2018-01-02T21:59:14.845Z,19.91
2018-01-02T22:00:15.016Z,19.91
2018-01-02T22:01:14.835Z,19.89
2018-01-02T22:02:14.860Z,19.89
2018-01-02T22:03:14.822Z,19.89
2018-01-02T22:04:14.892Z,19.87
2018-01-02T22:05:14.929Z,19.88
2018-01-02T22:06:14.808Z,19.87
2018-01-02T22:07:14.939Z,19.87
2018-01-02T22:08:14.841Z,19.86
2018-01-02T22:09:14.868Z,19.86
2018-01-02T22:10:14.870Z,19.85
2018-01-02T22:11:14.830Z,19.85
2018-01-02T22:12:14.911Z,19.84
2018-01-02T22:13:15.474Z,19.84
2018-01-02T22:14:14.820Z,19.83
2018-01-02T22:15:14.840Z,19.83
2018-01-02T22:16:14.911Z,19.82
2018-01-02T22:17:15.484Z,19.82
2018-01-02T22:18:14.820Z,19.81
2018-01-02T22:19:14.833Z,19.81
2018-01-02T22:20:14.861Z,19.81
2018-01-02T22:21:14.872Z,19.8
2018-01-02T22:22:14.964Z,19.8
2018-01-02T22:23:14.914Z,19.79
2018-01-02T22:24:14.892Z,19.79
2018-01-02T22:25:14.852Z,19.78
2018-01-02T22:26:14.842Z,19.78
2018-01-02T22:27:14.829Z,19.78
2018-01-02T22:28:15.614Z,19.76
2018-01-02T22:29:14.868Z,19.77
2018-01-02T22:30:15.353Z,19.76
2018-01-02T22:31:16.383Z,19.77
2018-01-02T22:32:14.883Z,19.77
2018-01-02T22:33:14.884Z,19.76
2018-01-02T22:34:14.934Z,19.75
2018-01-02T22:35:14.885Z,19.74
2018-01-02T22:36:14.842Z,19.75
2018-01-02T22:37:14.964Z,19.75
2018-01-02T22:38:14.857Z,19.74
2018-01-02T22:39:14.919Z,19.73
2018-01-02T22:40:14.854Z,19.74
2018-01-02T22:41:14.846Z,19.73
2018-01-02T22:42:15.077Z,19.73
2018-01-02T22:43:15.136Z,19.73
2018-01-02T22:44:15.480Z,19.72
2018-01-02T22:45:14.919Z,19.72
2018-01-02T22:46:15.130Z,19.71
2018-01-02T22:47:14.870Z,19.71
2018-01-02T22:48:15.892Z,19.7
2018-01-02T22:49:14.966Z,19.72
2018-01-02T22:50:14.876Z,19.7
2018-01-02T22:51:14.848Z,19.7
2018-01-02T22:52:14.877Z,19.69
2018-01-02T22:53:14.903Z,19.69
2018-01-02T22:54:16.228Z,19.69
2018-01-02T22:55:15.718Z,19.69
2018-01-02T22:56:26.887Z,19.68
2018-01-02T22:57:26.914Z,19.68
2018-01-02T22:58:26.905Z,19.68
2018-01-02T22:59:26.888Z,19.68
2018-01-02T23:00:26.886Z,19.68
2018-01-02T23:01:30.703Z,19.67
2018-01-02T23:02:26.885Z,19.67
2018-01-02T23:03:27.378Z,19.68
2018-01-02T23:04:26.913Z,19.67
2018-01-02T23:05:26.889Z,19.66
2018-01-02T23:06:26.889Z,19.67
2018-01-02T23:07:26.889Z,19.67
2018-01-02T23:08:26.913Z,19.66
2018-01-02T23:09:26.891Z,19.66
2018-01-02T23:10:26.892Z,19.65
2018-01-02T23:11:26.893Z,19.65
2018-01-02T23:12:26.891Z,19.65
2018-01-02T23:13:26.917Z,19.63
2018-01-02T23:14:26.895Z,19.64
2018-01-02T23:15:26.902Z,19.63
2018-01-02T23:16:26.895Z,19.63
2018-01-02T23:17:26.898Z,19.63
2018-01-02T23:18:26.921Z,19.63
2018-01-02T23:19:26.902Z,19.62
2018-01-02T23:20:26.897Z,19.62
2018-01-02T23:21:26.914Z,19.61
2018-01-02T23:22:26.901Z,19.63
2018-01-02T23:23:26.946Z,19.62
2018-01-02T23:24:26.905Z,19.62
2018-01-02T23:25:26.908Z,19.61
2018-01-02T23:26:26.911Z,19.61
2018-01-02T23:27:26.909Z,19.61
2018-01-02T23:28:26.930Z,19.61
2018-01-02T23:29:26.909Z,19.61
2018-01-02T23:30:26.910Z,19.61
2018-01-02T23:31:26.912Z,19.61
2018-01-02T23:32:26.915Z,19.6
2018-01-02T23:33:26.942Z,19.59
2018-01-02T23:34:26.913Z,19.59
2018-01-02T23:35:26.916Z,19.58
2018-01-02T23:36:26.918Z,19.58
2018-01-02T23:37:26.919Z,19.59
2018-01-02T23:38:26.941Z,19.57
2018-01-02T23:39:26.920Z,19.56
2018-01-02T23:40:26.923Z,19.57
2018-01-02T23:41:26.920Z,19.57
2018-01-02T23:42:27.299Z,19.55
2018-01-02T23:43:26.946Z,19.56
2018-01-02T23:44:26.926Z,19.55
2018-01-02T23:45:30.974Z,19.55
2018-01-02T23:47:26.943Z,19.55
2018-01-02T23:48:26.929Z,19.54
2018-01-02T23:49:26.927Z,19.53
2018-01-02T23:50:26.933Z,19.53
2018-01-02T23:51:26.930Z,19.54
2018-01-02T23:52:26.929Z,19.53
2018-01-02T23:53:26.939Z,19.53
2018-01-02T23:54:26.932Z,19.52
2018-01-02T23:55:26.935Z,19.5
2018-01-02T23:56:26.931Z,19.52
2018-01-02T23:57:26.933Z,19.5
2018-01-02T23:58:26.960Z,19.5
2018-01-02T23:59:26.941Z,19.5
